Time;durP1;ratioP1;P1;durP2;ratioP2;P2;SDS_P1;SDS_P2;PMS_P1;PMS_P2;Temp;Humidity;BMP_temperature;BMP_pressure;BME280_temperature;BME280_humidity;BME280_pressure;Samples;Min_cycle;Max_cycle;Signal;HPM_P1;HPM_P2
2021/03/05 00:00:29;;;;;;;20.45;7.35;;;;;;;;;;5071749;28;20174;-49
2021/03/05 00:02:55;;;;;;;20.63;7.05;;;;;;;;;;5071897;28;20199;-49
2021/03/05 00:05:21;;;;;;;16.10;7.37;;;;;;;;;;5071661;28;20176;-49
2021/03/05 00:07:47;;;;;;;17.10;6.95;;;;;;;;;;5071526;28;20491;-51
2021/03/05 00:10:15;;;;;;;13.73;6.90;;;;;;;;;;5071582;28;20177;-52
2021/03/05 00:12:41;;;;;;;13.38;6.75;;;;;;;;;;5071640;28;20175;-49
2021/03/05 00:15:09;;;;;;;20.77;7.38;;;;;;;;;;5071543;28;20706;-51
2021/03/05 00:17:35;;;;;;;23.45;7.57;;;;;;;;;;5071398;28;20273;-50
2021/03/05 00:20:01;;;;;;;16.08;6.47;;;;;;;;;;5071572;28;20281;-49
2021/03/05 00:22:27;;;;;;;16.08;6.30;;;;;;;;;;5071147;28;20669;-51
2021/03/05 00:24:53;;;;;;;14.80;7.00;;;;;;;;;;5071323;28;20315;-52
2021/03/05 00:27:19;;;;;;;18.97;6.30;;;;;;;;;;5071070;28;20265;-50
2021/03/05 00:29:45;;;;;;;15.63;6.50;;;;;;;;;;5071479;28;20401;-49
2021/03/05 00:32:11;;;;;;;19.47;6.40;;;;;;;;;;5075916;28;20825;-49
2021/03/05 00:34:37;;;;;;;19.43;7.07;;;;;;;;;;5091192;28;20461;-49
2021/03/05 00:37:04;;;;;;;27.67;8.50;;;;;;;;;;5089876;28;20408;-48
2021/03/05 00:39:30;;;;;;;14.10;7.20;;;;;;;;;;5091528;28;20406;-49
2021/03/05 00:41:56;;;;;;;15.63;7.80;;;;;;;;;;5091432;28;20874;-48
2021/03/05 00:44:22;;;;;;;20.92;6.80;;;;;;;;;;5084656;28;20682;-49
2021/03/05 00:46:48;;;;;;;22.47;7.90;;;;;;;;;;5071193;28;20171;-49
2021/03/05 00:49:15;;;;;;;14.55;5.97;;;;;;;;;;5070787;28;20473;-52
2021/03/05 00:51:44;;;;;;;14.35;6.97;;;;;;;;;;5071191;28;20638;-53
2021/03/05 00:54:10;;;;;;;20.25;7.80;;;;;;;;;;5070799;28;20273;-49
2021/03/05 00:56:36;;;;;;;21.30;6.93;;;;;;;;;;5071090;28;20209;-49
2021/03/05 00:59:02;;;;;;;17.65;7.05;;;;;;;;;;5070651;28;20175;-49
2021/03/05 01:01:28;;;;;;;15.87;6.70;;;;;;;;;;5070972;28;20594;-50
2021/03/05 01:03:54;;;;;;;14.70;7.33;;;;;;;;;;5070802;28;20456;-49
2021/03/05 01:06:20;;;;;;;15.27;7.50;;;;;;;;;;5070979;28;20393;-49
2021/03/05 01:08:46;;;;;;;21.50;8.67;;;;;;;;;;5070857;28;20238;-49
2021/03/05 01:11:12;;;;;;;29.25;7.70;;;;;;;;;;5071021;28;20392;-49
2021/03/05 01:13:38;;;;;;;30.77;7.93;;;;;;;;;;5073224;28;20286;-50
2021/03/05 01:16:04;;;;;;;19.20;7.67;;;;;;;;;;5090823;28;20254;-50
2021/03/05 01:18:30;;;;;;;24.15;8.70;;;;;;;;;;5090811;28;20867;-50
2021/03/05 01:20:56;;;;;;;17.75;8.63;;;;;;;;;;5090764;28;20170;-51
2021/03/05 01:23:23;;;;;;;22.20;8.20;;;;;;;;;;5090735;28;20321;-53
2021/03/05 01:25:49;;;;;;;16.45;7.50;;;;;;;;;;5090967;28;20193;-49
2021/03/05 01:28:15;;;;;;;26.67;10.23;;;;;;;;;;5090680;28;20730;-49
2021/03/05 01:30:41;;;;;;;18.00;10.88;;;;;;;;;;5090726;28;20393;-49
2021/03/05 01:33:07;;;;;;;19.17;9.50;;;;;;;;;;5091427;28;20221;-49
2021/03/05 01:35:33;;;;;;;21.02;9.48;;;;;;;;;;5090759;28;20443;-49
2021/03/05 01:37:59;;;;;;;20.95;9.65;;;;;;;;;;5090312;28;20183;-50
2021/03/05 01:40:27;;;;;;;27.60;10.83;;;;;;;;;;5090687;28;20161;-49
2021/03/05 01:42:53;;;;;;;25.20;11.57;;;;;;;;;;5090391;28;20454;-50
2021/03/05 01:45:21;;;;;;;28.17;12.40;;;;;;;;;;5078430;28;20530;-49
2021/03/05 01:47:48;;;;;;;33.10;13.70;;;;;;;;;;5090272;28;20165;-51
2021/03/05 01:50:25;;;;;;;28.73;12.93;;;;;;;;;;5090644;28;20205;-49
2021/03/05 01:52:57;;;;;;;26.60;13.25;;;;;;;;;;5090419;28;20743;-52
2021/03/05 01:55:23;;;;;;;39.58;15.90;;;;;;;;;;5090551;28;20168;-50
2021/03/05 01:57:49;;;;;;;31.73;15.23;;;;;;;;;;5090199;28;20176;-50
2021/03/05 02:00:19;;;;;;;32.60;16.70;;;;;;;;;;5090497;28;20233;-51
2021/03/05 02:02:45;;;;;;;32.45;18.88;;;;;;;;;;5089430;28;20471;-51
2021/03/05 02:05:11;;;;;;;35.10;19.17;;;;;;;;;;5090309;28;20297;-50
2021/03/05 02:07:37;;;;;;;34.45;17.30;;;;;;;;;;5089943;28;20453;-50
2021/03/05 02:10:05;;;;;;;33.70;16.37;;;;;;;;;;5088897;28;20642;-50
2021/03/05 02:12:31;;;;;;;39.78;20.45;;;;;;;;;;5094214;28;20407;-50
2021/03/05 02:14:57;;;;;;;35.00;19.07;;;;;;;;;;5092638;28;20325;-50
2021/03/05 02:17:41;;;;;;;33.10;17.87;;;;;;;;;;5094005;28;20479;-51
2021/03/05 02:20:12;;;;;;;36.28;17.13;;;;;;;;;;5094012;28;20444;-49
2021/03/05 02:22:58;;;;;;;28.30;15.75;;;;;;;;;;5094088;28;20680;-50
2021/03/05 02:25:39;;;;;;;27.90;16.35;;;;;;;;;;5094041;28;20215;-49
2021/03/05 02:28:11;;;;;;;33.45;16.98;;;;;;;;;;5093724;28;20164;-50
2021/03/05 02:30:37;;;;;;;31.08;17.58;;;;;;;;;;5093915;28;20159;-51
2021/03/05 02:33:12;;;;;;;28.80;15.20;;;;;;;;;;5093881;28;20162;-52
2021/03/05 02:35:38;;;;;;;24.98;15.45;;;;;;;;;;5093751;28;20934;-50
2021/03/05 02:38:07;;;;;;;29.67;16.45;;;;;;;;;;5093646;28;20171;-50
2021/03/05 02:40:42;;;;;;;33.63;17.67;;;;;;;;;;5093636;28;20175;-52
2021/03/05 02:43:10;;;;;;;28.98;16.92;;;;;;;;;;5093657;28;20200;-50
2021/03/05 02:45:37;;;;;;;29.98;16.10;;;;;;;;;;5073496;28;20228;-51
2021/03/05 02:48:10;;;;;;;29.38;16.80;;;;;;;;;;5073414;28;20574;-52
2021/03/05 02:50:39;;;;;;;29.67;16.27;;;;;;;;;;5073194;28;20173;-50
2021/03/05 02:53:07;;;;;;;30.40;16.80;;;;;;;;;;5073363;28;20650;-54
2021/03/05 02:55:33;;;;;;;28.98;15.38;;;;;;;;;;5073643;28;20158;-50
2021/03/05 02:57:59;;;;;;;28.55;17.58;;;;;;;;;;5073130;28;20249;-50
2021/03/05 03:00:26;;;;;;;28.88;16.48;;;;;;;;;;5073229;28;20260;-49
2021/03/05 03:02:56;;;;;;;30.45;16.27;;;;;;;;;;5072926;28;20195;-50
2021/03/05 03:05:23;;;;;;;25.42;15.18;;;;;;;;;;5073178;28;20171;-52
2021/03/05 03:07:50;;;;;;;32.40;17.20;;;;;;;;;;5072718;28;20163;-50
2021/03/05 03:10:16;;;;;;;21.42;14.07;;;;;;;;;;5073131;28;20163;-49
2021/03/05 03:12:43;;;;;;;27.00;14.25;;;;;;;;;;5072324;28;20177;-52
2021/03/05 03:15:10;;;;;;;23.90;13.60;;;;;;;;;;5092806;28;20193;-50
2021/03/05 03:17:38;;;;;;;24.27;15.10;;;;;;;;;;5092682;28;20658;-51
2021/03/05 03:20:04;;;;;;;31.65;15.38;;;;;;;;;;5093021;28;20250;-49
2021/03/05 03:22:31;;;;;;;21.75;13.77;;;;;;;;;;5092442;28;20193;-53
2021/03/05 03:24:57;;;;;;;22.30;13.73;;;;;;;;;;5092873;28;20187;-53
2021/03/05 03:27:23;;;;;;;24.55;14.40;;;;;;;;;;5092633;28;20621;-50
2021/03/05 03:29:49;;;;;;;20.35;13.45;;;;;;;;;;5092783;28;20217;-50
2021/03/05 03:32:15;;;;;;;21.40;14.70;;;;;;;;;;5092858;28;20169;-52
2021/03/05 03:34:42;;;;;;;29.80;15.88;;;;;;;;;;5092413;28;20531;-50
2021/03/05 03:37:09;;;;;;;24.52;14.60;;;;;;;;;;5092424;28;20197;-50
2021/03/05 03:39:35;;;;;;;19.38;13.50;;;;;;;;;;5092503;28;20262;-50
2021/03/05 03:42:02;;;;;;;21.58;13.77;;;;;;;;;;5092602;28;20540;-52
2021/03/05 03:44:28;;;;;;;22.42;14.85;;;;;;;;;;5079650;28;20194;-49
2021/03/05 03:46:54;;;;;;;25.97;15.87;;;;;;;;;;5072026;28;20178;-53
2021/03/05 03:49:26;;;;;;;22.63;15.25;;;;;;;;;;5071969;28;20401;-50
2021/03/05 03:51:57;;;;;;;23.65;13.50;;;;;;;;;;5072232;28;20172;-50
2021/03/05 03:54:24;;;;;;;21.48;12.70;;;;;;;;;;5071952;28;20749;-50
2021/03/05 03:56:51;;;;;;;24.35;13.18;;;;;;;;;;5072063;28;20284;-50
2021/03/05 03:59:17;;;;;;;26.15;15.55;;;;;;;;;;5071945;28;20227;-50
2021/03/05 04:01:47;;;;;;;22.65;13.63;;;;;;;;;;5071730;28;20170;-50
2021/03/05 04:04:14;;;;;;;22.05;14.85;;;;;;;;;;5071817;28;20193;-51
2021/03/05 04:06:40;;;;;;;23.02;14.20;;;;;;;;;;5071627;28;20216;-53
2021/03/05 04:09:08;;;;;;;21.35;11.52;;;;;;;;;;5071656;28;20227;-50
2021/03/05 04:11:35;;;;;;;18.02;12.27;;;;;;;;;;5071641;28;20535;-50
2021/03/05 04:14:01;;;;;;;15.30;10.85;;;;;;;;;;5083414;28;20201;-50
2021/03/05 04:16:27;;;;;;;16.30;10.57;;;;;;;;;;5090740;28;20259;-52
2021/03/05 04:18:53;;;;;;;13.52;9.82;;;;;;;;;;5091728;28;20185;-52
2021/03/05 04:21:21;;;;;;;13.00;9.20;;;;;;;;;;5091745;28;20583;-49
2021/03/05 04:23:47;;;;;;;16.02;9.07;;;;;;;;;;5091739;28;20476;-50
2021/03/05 04:26:13;;;;;;;9.45;7.60;;;;;;;;;;5091534;28;20161;-50
2021/03/05 04:28:39;;;;;;;9.70;8.25;;;;;;;;;;5091516;28;20207;-50
2021/03/05 04:31:05;;;;;;;11.80;8.23;;;;;;;;;;5091658;28;20166;-50
2021/03/05 04:33:31;;;;;;;11.50;7.65;;;;;;;;;;5090818;28;20481;-50
2021/03/05 04:35:57;;;;;;;9.33;6.33;;;;;;;;;;5091619;28;20633;-50
2021/03/05 04:38:23;;;;;;;7.20;6.30;;;;;;;;;;5091160;28;20407;-50
2021/03/05 04:40:49;;;;;;;12.00;7.20;;;;;;;;;;5091535;28;20545;-50
2021/03/05 04:43:15;;;;;;;7.40;6.70;;;;;;;;;;5086943;28;20549;-50
2021/03/05 04:45:41;;;;;;;9.50;5.60;;;;;;;;;;5071244;28;20406;-52
2021/03/05 04:48:07;;;;;;;5.90;4.60;;;;;;;;;;5070823;28;20412;-49
2021/03/05 04:50:33;;;;;;;12.43;4.93;;;;;;;;;;5071062;28;20420;-52
2021/03/05 04:52:59;;;;;;;4.70;4.27;;;;;;;;;;5070969;28;20230;-49
2021/03/05 04:55:25;;;;;;;6.60;4.35;;;;;;;;;;5071138;28;20405;-49
2021/03/05 04:57:51;;;;;;;5.53;4.00;;;;;;;;;;5070597;28;20186;-50
2021/03/05 05:00:17;;;;;;;7.20;3.63;;;;;;;;;;5071082;28;20447;-49
2021/03/05 05:02:43;;;;;;;5.28;3.72;;;;;;;;;;5070911;28;20444;-50
2021/03/05 05:05:10;;;;;;;6.13;3.80;;;;;;;;;;5070719;28;20235;-49
2021/03/05 05:07:36;;;;;;;6.35;3.83;;;;;;;;;;5070682;28;20403;-49
2021/03/05 05:10:02;;;;;;;4.63;4.23;;;;;;;;;;5071034;28;20265;-49
2021/03/05 05:12:28;;;;;;;5.40;4.30;;;;;;;;;;5071127;28;20436;-54
2021/03/05 05:14:54;;;;;;;6.82;4.00;;;;;;;;;;5070389;28;20712;-49
2021/03/05 05:17:20;;;;;;;10.77;3.67;;;;;;;;;;5070678;28;20241;-49
2021/03/05 05:19:46;;;;;;;3.35;3.05;;;;;;;;;;5070692;28;20401;-49
2021/03/05 05:22:12;;;;;;;8.27;4.40;;;;;;;;;;5073664;28;20607;-50
2021/03/05 05:24:38;;;;;;;5.32;3.55;;;;;;;;;;5090789;28;20420;-49
2021/03/05 05:27:05;;;;;;;8.30;3.80;;;;;;;;;;5090678;28;20165;-49
2021/03/05 05:29:31;;;;;;;7.47;3.85;;;;;;;;;;5090749;28;20628;-50
2021/03/05 05:31:57;;;;;;;4.07;3.20;;;;;;;;;;5090818;28;20632;-52
2021/03/05 05:34:23;;;;;;;3.03;2.83;;;;;;;;;;5090543;28;20447;-52
2021/03/05 05:36:49;;;;;;;5.17;3.63;;;;;;;;;;5090703;28;20399;-49
2021/03/05 05:39:15;;;;;;;6.57;3.67;;;;;;;;;;5090608;28;20490;-49
2021/03/05 05:41:41;;;;;;;7.00;4.00;;;;;;;;;;5090460;28;20408;-51
2021/03/05 05:44:08;;;;;;;9.23;3.00;;;;;;;;;;5087415;28;20381;-52
2021/03/05 05:46:34;;;;;;;3.67;3.38;;;;;;;;;;5074527;28;20169;-49
2021/03/05 05:49:00;;;;;;;7.88;4.13;;;;;;;;;;5074377;28;20162;-50
2021/03/05 05:51:30;;;;;;;3.90;3.55;;;;;;;;;;5074671;28;20651;-49
2021/03/05 05:54:02;;;;;;;3.65;3.20;;;;;;;;;;5074425;28;20671;-50
2021/03/05 05:56:29;;;;;;;9.43;3.92;;;;;;;;;;5074258;28;20194;-52
2021/03/05 05:58:55;;;;;;;4.75;3.28;;;;;;;;;;5074127;28;20245;-50
2021/03/05 06:01:21;;;;;;;11.43;4.65;;;;;;;;;;5074154;28;20249;-50
2021/03/05 06:03:47;;;;;;;5.10;4.10;;;;;;;;;;5074086;28;20639;-51
2021/03/05 06:06:13;;;;;;;4.80;3.30;;;;;;;;;;5074135;28;20412;-51
2021/03/05 06:08:39;;;;;;;6.18;4.25;;;;;;;;;;5073865;28;20428;-52
2021/03/05 06:11:05;;;;;;;4.50;3.60;;;;;;;;;;5074072;28;20174;-50
2021/03/05 06:13:31;;;;;;;4.82;3.63;;;;;;;;;;5073863;28;20190;-50
2021/03/05 06:16:10;;;;;;;4.10;3.80;;;;;;;;;;5073556;28;20269;-50
2021/03/05 06:18:36;;;;;;;4.35;3.47;;;;;;;;;;5073631;28;20922;-49
2021/03/05 06:21:02;;;;;;;6.03;4.38;;;;;;;;;;5073941;28;20178;-50
2021/03/05 06:23:28;;;;;;;5.00;4.10;;;;;;;;;;5073405;28;20206;-51
2021/03/05 06:26:01;;;;;;;6.05;3.97;;;;;;;;;;5073793;28;20439;-51
2021/03/05 06:28:27;;;;;;;3.95;3.65;;;;;;;;;;5073490;28;20166;-49
2021/03/05 06:30:54;;;;;;;4.43;4.03;;;;;;;;;;5073848;28;20181;-50
2021/03/05 06:33:32;;;;;;;6.43;4.20;;;;;;;;;;5073544;28;20217;-52
2021/03/05 06:36:18;;;;;;;4.80;4.40;;;;;;;;;;5073637;28;20181;-52
2021/03/05 06:38:45;;;;;;;3.88;3.45;;;;;;;;;;5073278;28;20193;-52
2021/03/05 06:41:37;;;;;;;5.32;3.83;;;;;;;;;;5073626;28;20198;-51
2021/03/05 06:44:04;;;;;;;3.95;3.60;;;;;;;;;;5071305;28;20256;-50
2021/03/05 06:46:33;;;;;;;5.57;3.60;;;;;;;;;;5073101;28;20174;-50
2021/03/05 06:49:00;;;;;;;4.85;3.80;;;;;;;;;;5073271;28;20257;-51
2021/03/05 06:51:26;;;;;;;7.32;3.75;;;;;;;;;;5073306;28;20166;-49
2021/03/05 06:54:06;;;;;;;5.38;3.63;;;;;;;;;;5073334;28;20192;-50
2021/03/05 06:56:33;;;;;;;3.53;3.22;;;;;;;;;;5072508;28;20192;-50
2021/03/05 06:58:59;;;;;;;4.20;3.80;;;;;;;;;;5073127;28;20177;-50
2021/03/05 07:01:25;;;;;;;3.47;3.17;;;;;;;;;;5073100;28;20174;-52
2021/03/05 07:04:06;;;;;;;4.13;3.33;;;;;;;;;;5073143;28;20594;-51
2021/03/05 07:06:33;;;;;;;6.32;3.30;;;;;;;;;;5072978;28;20595;-49
2021/03/05 07:08:59;;;;;;;7.75;3.88;;;;;;;;;;5073047;28;20228;-49
2021/03/05 07:11:39;;;;;;;3.20;2.93;;;;;;;;;;5073033;28;20166;-49
2021/03/05 07:14:06;;;;;;;3.10;2.80;;;;;;;;;;5073089;28;20417;-54
2021/03/05 07:16:58;;;;;;;4.15;2.97;;;;;;;;;;5072985;28;20252;-52
2021/03/05 07:19:25;;;;;;;4.78;3.40;;;;;;;;;;5070124;28;20197;-52
2021/03/05 07:21:51;;;;;;;6.22;3.38;;;;;;;;;;5072731;28;20641;-50
2021/03/05 07:24:19;;;;;;;3.20;2.90;;;;;;;;;;5072676;28;20197;-52
2021/03/05 07:27:01;;;;;;;4.85;3.30;;;;;;;;;;5079018;28;20166;-50
2021/03/05 07:29:29;;;;;;;3.05;2.75;;;;;;;;;;5076532;28;20174;-50
2021/03/05 07:31:59;;;;;;;3.97;3.03;;;;;;;;;;5072500;28;20177;-50
2021/03/05 07:34:26;;;;;;;4.13;3.42;;;;;;;;;;5072913;28;20378;-50
2021/03/05 07:36:54;;;;;;;3.90;3.30;;;;;;;;;;5072473;28;20178;-54
2021/03/05 07:39:27;;;;;;;7.35;3.25;;;;;;;;;;5072361;28;20170;-49
2021/03/05 07:41:54;;;;;;;4.80;2.70;;;;;;;;;;5074068;28;20162;-50
2021/03/05 07:44:21;;;;;;;6.88;3.65;;;;;;;;;;5073086;28;20202;-49
2021/03/05 07:46:48;;;;;;;3.80;3.40;;;;;;;;;;5081162;28;20264;-50
2021/03/05 07:49:14;;;;;;;3.50;3.13;;;;;;;;;;5071814;28;20536;-49
2021/03/05 07:51:41;;;;;;;4.30;3.13;;;;;;;;;;5085704;28;20173;-51
2021/03/05 07:54:07;;;;;;;5.30;3.85;;;;;;;;;;5092019;28;20415;-49
2021/03/05 07:56:40;;;;;;;6.90;4.22;;;;;;;;;;5090972;28;20211;-49
2021/03/05 07:59:06;;;;;;;3.75;2.70;;;;;;;;;;5091885;28;20177;-51
2021/03/05 08:01:56;;;;;;;4.70;3.75;;;;;;;;;;5092169;28;20537;-49
2021/03/05 08:04:22;;;;;;;6.72;4.38;;;;;;;;;;5084234;28;20205;-52
2021/03/05 08:07:07;;;;;;;7.60;4.47;;;;;;;;;;5091903;28;20164;-51
2021/03/05 08:09:36;;;;;;;6.97;4.82;;;;;;;;;;5090914;28;20186;-52
2021/03/05 08:12:25;;;;;;;8.00;5.35;;;;;;;;;;5091742;28;20212;-49
2021/03/05 08:14:51;;;;;;;9.45;5.47;;;;;;;;;;5091685;28;20322;-49
2021/03/05 08:17:32;;;;;;;6.43;5.20;;;;;;;;;;5079748;28;20181;-50
2021/03/05 08:19:58;;;;;;;9.18;5.78;;;;;;;;;;5091773;28;21001;-49
2021/03/05 08:22:26;;;;;;;10.13;6.27;;;;;;;;;;5091594;28;20661;-51
2021/03/05 08:24:52;;;;;;;11.02;6.28;;;;;;;;;;5091670;28;20799;-51
2021/03/05 08:27:19;;;;;;;11.73;5.87;;;;;;;;;;5091358;28;20171;-52
2021/03/05 08:30:12;;;;;;;9.10;5.93;;;;;;;;;;5088195;28;20543;-48
2021/03/05 08:32:47;;;;;;;13.77;5.85;;;;;;;;;;5087949;28;20173;-48
2021/03/05 08:35:15;;;;;;;5.93;5.05;;;;;;;;;;5088307;28;20276;-52
2021/03/05 08:37:48;;;;;;;10.85;6.18;;;;;;;;;;5087765;28;20162;-49
2021/03/05 08:40:14;;;;;;;10.27;7.65;;;;;;;;;;5088005;28;20637;-48
2021/03/05 08:42:41;;;;;;;6.57;4.50;;;;;;;;;;5088026;28;20188;-48
2021/03/05 08:45:15;;;;;;;10.45;5.40;;;;;;;;;;5087643;28;20708;-51
2021/03/05 08:47:42;;;;;;;5.75;5.20;;;;;;;;;;5068969;28;20529;-51
2021/03/05 08:50:09;;;;;;;9.00;5.68;;;;;;;;;;5067455;28;20166;-48
2021/03/05 08:52:35;;;;;;;6.10;5.55;;;;;;;;;;5067697;28;20166;-49
2021/03/05 08:55:04;;;;;;;7.78;4.97;;;;;;;;;;5067438;28;20666;-48
2021/03/05 08:57:37;;;;;;;12.30;6.28;;;;;;;;;;5067077;28;20171;-53
2021/03/05 09:00:04;;;;;;;7.40;5.38;;;;;;;;;;5067646;28;20561;-48
2021/03/05 09:02:30;;;;;;;5.30;4.90;;;;;;;;;;5067559;28;20190;-53
2021/03/05 09:04:56;;;;;;;5.77;5.20;;;;;;;;;;5067525;28;20697;-52
2021/03/05 09:07:22;;;;;;;9.40;5.80;;;;;;;;;;5067075;28;20916;-48
2021/03/05 09:09:51;;;;;;;9.90;5.73;;;;;;;;;;5067559;28;20401;-48
2021/03/05 09:12:18;;;;;;;7.03;6.35;;;;;;;;;;5067250;28;20404;-48
2021/03/05 09:14:45;;;;;;;11.93;6.90;;;;;;;;;;5067429;28;20198;-52
2021/03/05 09:17:12;;;;;;;12.13;5.82;;;;;;;;;;5066770;28;20175;-49
2021/03/05 09:19:45;;;;;;;9.70;6.30;;;;;;;;;;5067254;28;20195;-48
2021/03/05 09:22:13;;;;;;;7.85;6.32;;;;;;;;;;5067181;28;20582;-50
2021/03/05 09:24:52;;;;;;;11.05;5.47;;;;;;;;;;5066885;28;20280;-50
2021/03/05 09:27:19;;;;;;;7.90;5.80;;;;;;;;;;5066699;28;20230;-48
2021/03/05 09:29:45;;;;;;;13.88;6.97;;;;;;;;;;5066672;28;20570;-49
2021/03/05 09:32:11;;;;;;;6.20;5.70;;;;;;;;;;5067011;28;20176;-51
2021/03/05 09:34:50;;;;;;;6.30;5.70;;;;;;;;;;5066584;28;20423;-51
2021/03/05 09:37:17;;;;;;;9.75;6.80;;;;;;;;;;5066545;28;20171;-49
2021/03/05 09:39:44;;;;;;;8.63;5.97;;;;;;;;;;5061667;28;20268;-53
2021/03/05 09:42:10;;;;;;;10.68;6.95;;;;;;;;;;5053641;28;20174;-50
2021/03/05 09:44:43;;;;;;;8.15;6.30;;;;;;;;;;5053847;28;20186;-49
2021/03/05 09:47:09;;;;;;;8.77;6.35;;;;;;;;;;5066850;28;20204;-52
2021/03/05 09:49:35;;;;;;;7.93;6.47;;;;;;;;;;5073129;28;20277;-52
2021/03/05 09:52:01;;;;;;;8.83;6.03;;;;;;;;;;5073289;28;20167;-51
2021/03/05 09:54:42;;;;;;;9.73;8.60;;;;;;;;;;5073265;28;20424;-49
2021/03/05 09:57:08;;;;;;;10.60;8.30;;;;;;;;;;5072862;28;20414;-49
2021/03/05 09:59:45;;;;;;;12.20;7.37;;;;;;;;;;5073079;28;20459;-50
2021/03/05 10:02:11;;;;;;;8.90;5.73;;;;;;;;;;5072951;28;20493;-49
2021/03/05 10:04:44;;;;;;;8.10;5.70;;;;;;;;;;5073026;28;20974;-50
2021/03/05 10:07:10;;;;;;;8.27;7.13;;;;;;;;;;5072737;28;20408;-52
2021/03/05 10:09:36;;;;;;;10.10;5.47;;;;;;;;;;5073762;28;20999;-49
2021/03/05 10:12:02;;;;;;;10.30;6.27;;;;;;;;;;5073221;28;20426;-51
2021/03/05 10:14:31;;;;;;;5.50;5.00;;;;;;;;;;5072705;28;20420;-51
2021/03/05 10:17:14;;;;;;;5.23;4.60;;;;;;;;;;5061298;28;20434;-52
2021/03/05 10:19:42;;;;;;;8.00;5.13;;;;;;;;;;5052707;28;20454;-52
2021/03/05 10:22:08;;;;;;;5.43;3.77;;;;;;;;;;5052607;28;20778;-52
2021/03/05 10:24:34;;;;;;;5.93;4.17;;;;;;;;;;5052700;28;20424;-50
2021/03/05 10:27:19;;;;;;;5.77;3.90;;;;;;;;;;5052251;28;20455;-51
2021/03/05 10:29:49;;;;;;;3.87;3.23;;;;;;;;;;5052468;28;20879;-50
2021/03/05 10:32:19;;;;;;;7.13;3.47;;;;;;;;;;5052553;28;20500;-50
2021/03/05 10:34:46;;;;;;;4.67;3.90;;;;;;;;;;5052330;28;20428;-52
2021/03/05 10:37:13;;;;;;;4.80;4.20;;;;;;;;;;5052118;28;20418;-50
2021/03/05 10:39:39;;;;;;;7.60;5.37;;;;;;;;;;5052144;28;20545;-49
2021/03/05 10:42:06;;;;;;;6.20;4.83;;;;;;;;;;5052347;28;20394;-49
2021/03/05 10:44:33;;;;;;;3.63;3.33;;;;;;;;;;5052046;28;20507;-50
2021/03/05 10:47:00;;;;;;;3.57;3.27;;;;;;;;;;5063570;28;20761;-49
2021/03/05 10:49:26;;;;;;;6.40;4.00;;;;;;;;;;5071899;28;20408;-52
2021/03/05 10:51:52;;;;;;;5.00;4.20;;;;;;;;;;5071177;28;20998;-53
2021/03/05 10:54:18;;;;;;;5.70;4.63;;;;;;;;;;5071832;28;20424;-50
2021/03/05 10:56:44;;;;;;;7.13;5.67;;;;;;;;;;5071752;28;20404;-51
2021/03/05 10:59:11;;;;;;;4.83;4.30;;;;;;;;;;5071671;28;20458;-52
2021/03/05 11:01:38;;;;;;;8.87;5.67;;;;;;;;;;5071848;28;20400;-49
2021/03/05 11:04:04;;;;;;;9.80;5.87;;;;;;;;;;5071840;28;20438;-52
2021/03/05 11:06:30;;;;;;;6.30;5.43;;;;;;;;;;5071746;28;20407;-52
2021/03/05 11:08:56;;;;;;;8.10;5.83;;;;;;;;;;5071600;28;20404;-49
2021/03/05 11:11:22;;;;;;;7.23;5.87;;;;;;;;;;5071722;28;20404;-49
2021/03/05 11:13:48;;;;;;;5.57;5.17;;;;;;;;;;5071742;28;20435;-49
2021/03/05 11:16:14;;;;;;;6.90;6.20;;;;;;;;;;5064272;28;20418;-49
2021/03/05 11:18:40;;;;;;;3.63;3.17;;;;;;;;;;5051364;28;20456;-49
2021/03/05 11:21:06;;;;;;;4.00;2.97;;;;;;;;;;5051739;28;20814;-51
2021/03/05 11:23:32;;;;;;;2.93;2.63;;;;;;;;;;5051385;28;20445;-49
2021/03/05 11:25:58;;;;;;;3.30;3.00;;;;;;;;;;5051588;28;20406;-49
2021/03/05 11:28:24;;;;;;;2.90;2.60;;;;;;;;;;5051079;28;20487;-50
2021/03/05 11:30:51;;;;;;;3.93;2.70;;;;;;;;;;5051661;28;20863;-50
2021/03/05 11:33:17;;;;;;;3.80;2.33;;;;;;;;;;5051618;28;20436;-53
2021/03/05 11:35:43;;;;;;;2.47;2.27;;;;;;;;;;5051417;28;20391;-53
2021/03/05 11:38:09;;;;;;;4.40;2.80;;;;;;;;;;5051011;28;20428;-53
2021/03/05 11:40:35;;;;;;;5.53;2.57;;;;;;;;;;5051101;28;20455;-50
2021/03/05 11:43:01;;;;;;;6.50;2.40;;;;;;;;;;5051280;28;20397;-49
2021/03/05 11:45:27;;;;;;;3.30;2.60;;;;;;;;;;5050929;28;20403;-52
2021/03/05 11:47:53;;;;;;;6.10;2.13;;;;;;;;;;5048451;28;20783;-57
2021/03/05 11:50:19;;;;;;;2.80;2.60;;;;;;;;;;5064805;28;20419;-49
2021/03/05 11:52:45;;;;;;;2.57;1.97;;;;;;;;;;5049679;28;20398;-49
2021/03/05 11:55:12;;;;;;;2.30;2.10;;;;;;;;;;5050910;28;20410;-50
2021/03/05 11:57:38;;;;;;;4.97;2.30;;;;;;;;;;5061053;28;20431;-49
2021/03/05 12:00:04;;;;;;;2.57;2.33;;;;;;;;;;5070421;28;20417;-49
2021/03/05 12:02:30;;;;;;;6.40;2.50;;;;;;;;;;5070422;28;20448;-49
2021/03/05 12:04:56;;;;;;;2.73;1.93;;;;;;;;;;5070712;28;20428;-50
2021/03/05 12:07:22;;;;;;;2.00;1.57;;;;;;;;;;5070418;28;20436;-50
2021/03/05 12:09:48;;;;;;;2.60;1.87;;;;;;;;;;5070896;28;20832;-50
2021/03/05 12:12:14;;;;;;;3.60;1.87;;;;;;;;;;5062767;28;20391;-50
2021/03/05 12:14:40;;;;;;;3.37;1.80;;;;;;;;;;5070572;28;20407;-50
2021/03/05 12:17:06;;;;;;;2.13;1.67;;;;;;;;;;5064702;28;20842;-54
2021/03/05 12:19:32;;;;;;;3.07;1.90;;;;;;;;;;5050359;28;20426;-52
2021/03/05 12:21:58;;;;;;;2.00;1.80;;;;;;;;;;5050576;28;20911;-52
2021/03/05 12:24:25;;;;;;;1.83;1.60;;;;;;;;;;5050365;28;20425;-52
2021/03/05 12:26:52;;;;;;;2.40;2.00;;;;;;;;;;5050294;28;20895;-54
2021/03/05 12:29:18;;;;;;;3.43;2.20;;;;;;;;;;5050218;28;20478;-52
2021/03/05 12:31:44;;;;;;;2.97;1.57;;;;;;;;;;5050538;28;20409;-52
2021/03/05 12:34:10;;;;;;;3.50;1.77;;;;;;;;;;5050531;28;20431;-51
2021/03/05 12:36:36;;;;;;;2.23;2.03;;;;;;;;;;5051125;28;20372;-51
2021/03/05 12:39:02;;;;;;;4.07;2.60;;;;;;;;;;5066418;28;20843;-52
2021/03/05 12:41:28;;;;;;;5.07;2.30;;;;;;;;;;5062687;28;20393;-50
2021/03/05 12:43:54;;;;;;;2.10;1.87;;;;;;;;;;5053287;28;20425;-52
2021/03/05 12:46:20;;;;;;;1.63;1.53;;;;;;;;;;5050227;28;20881;-53
2021/03/05 12:48:46;;;;;;;1.80;1.70;;;;;;;;;;5049542;28;20400;-49
2021/03/05 12:51:12;;;;;;;2.10;1.70;;;;;;;;;;5050190;28;21069;-50
2021/03/05 12:53:38;;;;;;;2.17;1.73;;;;;;;;;;5050181;28;20414;-49
2021/03/05 12:56:04;;;;;;;2.40;1.77;;;;;;;;;;5053546;28;20382;-50
2021/03/05 12:58:30;;;;;;;4.40;2.43;;;;;;;;;;5082446;28;20462;-49
2021/03/05 13:00:56;;;;;;;2.63;2.10;;;;;;;;;;5090205;28;20839;-52
2021/03/05 13:03:22;;;;;;;5.20;2.27;;;;;;;;;;5088582;28;20537;-49
2021/03/05 13:05:48;;;;;;;3.10;2.50;;;;;;;;;;5088664;28;20388;-50
2021/03/05 13:08:14;;;;;;;2.40;1.93;;;;;;;;;;5088224;28;20427;-49
2021/03/05 13:10:40;;;;;;;2.47;1.80;;;;;;;;;;5088845;28;20385;-50
2021/03/05 13:13:06;;;;;;;2.37;1.77;;;;;;;;;;5089454;28;20888;-50
2021/03/05 13:15:32;;;;;;;2.10;1.90;;;;;;;;;;5091141;28;20411;-50
2021/03/05 13:17:58;;;;;;;1.97;1.50;;;;;;;;;;5085298;28;20456;-49
2021/03/05 13:20:25;;;;;;;1.63;1.50;;;;;;;;;;5053379;28;20400;-50
2021/03/05 13:22:51;;;;;;;2.80;1.57;;;;;;;;;;5053983;28;20372;-49
2021/03/05 13:25:19;;;;;;;3.23;1.50;;;;;;;;;;5053669;28;20882;-49
2021/03/05 13:27:45;;;;;;;1.60;1.50;;;;;;;;;;5053543;28;20523;-49
2021/03/05 13:30:12;;;;;;;2.07;1.40;;;;;;;;;;5053942;28;20422;-52
2021/03/05 13:32:38;;;;;;;1.70;1.27;;;;;;;;;;5053791;28;21113;-49
2021/03/05 13:35:04;;;;;;;2.70;1.43;;;;;;;;;;5053787;28;20462;-49
2021/03/05 13:37:31;;;;;;;2.93;1.47;;;;;;;;;;5053327;28;20399;-53
2021/03/05 13:39:57;;;;;;;1.63;1.40;;;;;;;;;;5053594;28;20811;-49
2021/03/05 13:42:23;;;;;;;1.80;1.47;;;;;;;;;;5053402;28;20405;-51
2021/03/05 13:44:50;;;;;;;4.77;1.50;;;;;;;;;;5053480;28;20479;-50
2021/03/05 13:47:16;;;;;;;2.43;1.93;;;;;;;;;;5053078;28;20445;-50
2021/03/05 13:49:42;;;;;;;2.63;1.40;;;;;;;;;;5053340;28;20431;-49
2021/03/05 13:52:08;;;;;;;1.90;1.70;;;;;;;;;;5070698;28;20486;-49
2021/03/05 13:54:34;;;;;;;3.27;1.40;;;;;;;;;;5073161;28;20910;-49
2021/03/05 13:57:00;;;;;;;2.23;1.30;;;;;;;;;;5073110;28;20396;-48
2021/03/05 13:59:26;;;;;;;1.60;1.50;;;;;;;;;;5073043;28;20445;-50
2021/03/05 14:01:52;;;;;;;3.60;1.57;;;;;;;;;;5079466;28;20367;-52
2021/03/05 14:04:18;;;;;;;1.60;1.30;;;;;;;;;;5079180;28;20927;-52
2021/03/05 14:06:44;;;;;;;1.87;1.27;;;;;;;;;;5080180;28;20400;-52
2021/03/05 14:09:10;;;;;;;2.67;1.60;;;;;;;;;;5078413;28;20374;-53
2021/03/05 14:11:36;;;;;;;1.70;1.60;;;;;;;;;;5078048;28;20401;-51
2021/03/05 14:14:02;;;;;;;3.07;1.47;;;;;;;;;;5077445;28;20421;-52
2021/03/05 14:16:28;;;;;;;3.30;1.83;;;;;;;;;;5068669;28;20499;-52
2021/03/05 14:18:54;;;;;;;2.03;1.30;;;;;;;;;;5071525;28;20463;-52
2021/03/05 14:21:20;;;;;;;3.03;1.53;;;;;;;;;;5077420;28;20386;-52
2021/03/05 14:23:46;;;;;;;2.27;1.40;;;;;;;;;;5077660;28;20486;-54
2021/03/05 14:26:13;;;;;;;1.80;1.70;;;;;;;;;;5076065;28;20470;-51
2021/03/05 14:28:39;;;;;;;1.63;1.27;;;;;;;;;;5077574;28;20817;-52
2021/03/05 14:31:05;;;;;;;1.60;1.40;;;;;;;;;;5068962;28;20867;-51
2021/03/05 14:33:31;;;;;;;1.97;1.73;;;;;;;;;;5072548;28;20403;-52
2021/03/05 14:35:57;;;;;;;2.20;1.57;;;;;;;;;;5075569;28;20432;-53
2021/03/05 14:38:23;;;;;;;2.70;1.87;;;;;;;;;;5071526;28;20867;-52